Terminal Aerodrome Forecast
Issued by NWS Pocatello, ID

Home | Current Version | Previous Version | Text Only | Print | Product List | Glossary On
Versions: 1 2 3 4 5 6 7 8 9 10 11 12 13 14 15 16 17 18 19 20
000
FTUS45 KPIH 111700
TAFPIH
TAF
KPIH 111720Z 1118/1218 27010KT P6SM SCT150
     FM112100 23011G20KT P6SM VCTS FEW060CB BKN150
     FM120300 18006KT P6SM SCT100 SCT200=

USA.gov is the U.S. government's official web portal to all federal, state and local government web resources and services.